Kurgan, Russia
Current Conditions -  °F | °C
As of 3:00 PM on Sunday 25 Jan 2015 (Local Time) from USTR Reporting Station
Blowing Snow Blowing Snow  
Wind Chill: -15°   Ceiling: Unl
Heat Index:   Visibility: 6mi
Dew Point: -6°   Wind: 11mph
Humidity: 72%   Direction: 190°S
Pressure: 30.71"   Gusts: 18mph
Location:  55.45°N, 65.33°E
Report Text: USTR 251000Z 19005G08MPS 9999 DRSN NSC M17/M21 Q1040 NOSIG RMKQFE770/1027 21CLRD65 30750029
Loading
Personal Weather Stations






























Interactive Weather Map New forecast layout! Learn more

10-Day Weather Forecast

Advertisements
Track Severe Weather on mobile